Terminal Aerodrome Forecast
Issued by NWS

Home | Current Version | Previous Version | Graphics & Text | Print | Product List | Glossary On
Versions: 1 2 3 4 5 6 7 8 9 10 11 12 13
307
FTUS43 KICT 071124
TAFRSL
TAF
KRSL 071124Z 0712/0812 30009KT P6SM BKN200
     FM071500 31017KT P6SM SCT200
     FM071800 32024G32KT P6SM SCT200
     FM080200 31018KT P6SM SCT250=

USA.gov is the U.S. government's official web portal to all federal, state and local government web resources and services.